Terminal Aerodrome Forecast
Issued by NWS Portland, ME

Home | Current Version | Previous Version | Text Only | Print | Product List | Glossary On
Versions: 1 2 3 4 5 6 7 8 9 10 11 12 13 14 15 16 17 18 19 20 21
000
FTUS41 KGYX 040527
TAFPWM
TAF
KPWM 040527Z 0406/0506 VRB03KT P6SM OVC250
     FM041500 16008KT P6SM BKN080 OVC150
     FM050000 20004KT P6SM OVC080=

USA.gov is the U.S. government's official web portal to all federal, state and local government web resources and services.